createdAt,value
2022-12-18T00:02:50.318Z,82.20
2022-12-18T00:07:48.875Z,82.30
2022-12-18T00:12:48.041Z,82.20
2022-12-18T00:17:47.056Z,82.10
2022-12-18T00:22:46.059Z,82.10
2022-12-18T00:27:44.939Z,82.00
2022-12-18T00:32:44.073Z,81.60
2022-12-18T00:37:42.839Z,81.70
2022-12-18T00:42:57.390Z,81.90
2022-12-18T00:47:56.095Z,81.60
2022-12-18T00:52:54.825Z,81.80
2022-12-18T00:57:54.950Z,81.70
2022-12-18T01:02:53.999Z,81.70
2022-12-18T01:07:56.045Z,81.50
2022-12-18T01:12:54.991Z,81.50
2022-12-18T01:17:54.017Z,81.40
2022-12-18T01:22:52.934Z,81.30
2022-12-18T01:27:52.127Z,81.40
2022-12-18T01:32:51.366Z,81.40
2022-12-18T01:37:49.918Z,81.40
2022-12-18T01:42:49.686Z,81.40
2022-12-18T01:47:48.927Z,81.30
2022-12-18T01:52:48.135Z,81.20
2022-12-18T01:57:46.916Z,81.20
2022-12-18T02:02:46.550Z,81.20
2022-12-18T02:07:46.079Z,81.40
2022-12-18T02:12:45.379Z,81.40
2022-12-18T02:17:43.938Z,81.40
2022-12-18T02:22:42.996Z,81.50
2022-12-18T02:27:42.151Z,81.50
2022-12-18T02:32:41.026Z,81.50
2022-12-18T02:37:40.109Z,81.50
2022-12-18T02:42:40.142Z,81.50
2022-12-18T02:47:39.968Z,81.60
2022-12-18T02:52:40.392Z,81.50
2022-12-18T02:57:39.005Z,81.40
2022-12-18T03:02:38.494Z,81.40
2022-12-18T03:07:40.564Z,81.40
2022-12-18T03:12:41.185Z,81.30
2022-12-18T03:17:40.104Z,81.30
2022-12-18T03:22:40.370Z,81.30
2022-12-18T03:27:41.177Z,81.20
2022-12-18T03:32:40.797Z,81.20
2022-12-18T03:37:42.159Z,81.20
2022-12-18T03:42:42.980Z,81.20
2022-12-18T03:47:42.557Z,81.10
2022-12-18T03:52:43.388Z,81.20
2022-12-18T03:57:42.125Z,81.40
2022-12-18T04:02:42.041Z,81.30
2022-12-18T04:07:42.967Z,81.30
2022-12-18T04:12:43.929Z,81.10
2022-12-18T04:17:43.484Z,81.10
2022-12-18T04:22:42.299Z,80.90
2022-12-18T04:27:41.924Z,81.10
2022-12-18T04:32:41.750Z,81.10
2022-12-18T04:37:41.165Z,81.10
2022-12-18T04:42:40.064Z,81.00
2022-12-18T04:47:38.966Z,81.20
2022-12-18T04:52:38.175Z,81.20
2022-12-18T04:57:37.121Z,81.20
2022-12-18T05:02:36.243Z,81.20
2022-12-18T05:07:35.145Z,81.20
2022-12-18T05:12:34.171Z,81.20
2022-12-18T05:17:33.001Z,81.10
2022-12-18T05:22:32.201Z,80.90
2022-12-18T05:27:31.095Z,80.90
2022-12-18T05:32:29.994Z,80.80
2022-12-18T05:37:29.110Z,80.90
2022-12-18T05:42:28.085Z,80.90
2022-12-18T05:47:27.064Z,80.90
2022-12-18T05:52:26.454Z,80.80
2022-12-18T05:57:25.036Z,81.10
2022-12-18T06:02:24.272Z,81.00
2022-12-18T06:07:23.090Z,80.80
2022-12-18T06:12:22.161Z,80.90
2022-12-18T06:17:21.029Z,80.70
2022-12-18T06:22:20.651Z,80.50
2022-12-18T06:27:20.009Z,80.30
2022-12-18T06:32:19.224Z,80.30
2022-12-18T06:37:17.972Z,80.30
2022-12-18T06:42:17.062Z,80.30
2022-12-18T06:47:16.253Z,80.20
2022-12-18T06:52:15.241Z,80.30
2022-12-18T06:57:14.001Z,80.20
2022-12-18T07:02:13.515Z,80.20
2022-12-18T07:07:13.006Z,80.10
2022-12-18T07:12:12.063Z,80.20
2022-12-18T07:17:11.127Z,80.00
2022-12-18T07:22:10.182Z,80.00
2022-12-18T07:27:09.442Z,79.80
2022-12-18T07:32:09.070Z,79.80
2022-12-18T07:37:08.213Z,79.80
2022-12-18T07:42:25.219Z,79.70
2022-12-18T07:47:25.051Z,79.90
2022-12-18T07:52:26.225Z,79.40
2022-12-18T07:57:49.491Z,79.30
2022-12-18T08:02:26.220Z,79.40
2022-12-18T08:07:25.137Z,79.30
2022-12-18T08:12:24.171Z,79.10
2022-12-18T08:17:23.239Z,79.20
2022-12-18T08:22:22.251Z,79.00
2022-12-18T08:27:29.303Z,79.00
2022-12-18T08:32:22.108Z,78.90
2022-12-18T08:37:21.074Z,78.80
2022-12-18T08:42:38.226Z,78.50
2022-12-18T08:47:37.098Z,78.30
2022-12-18T08:52:36.123Z,78.10
2022-12-18T08:57:35.135Z,78.20
2022-12-18T09:02:34.208Z,77.80
2022-12-18T09:07:33.064Z,77.80
2022-12-18T09:12:32.263Z,76.80
2022-12-18T09:17:31.430Z,76.50
2022-12-18T09:22:30.092Z,76.70
2022-12-18T09:27:29.086Z,76.20
2022-12-18T09:32:28.092Z,75.90
2022-12-18T09:37:27.019Z,75.00
2022-12-18T09:42:26.323Z,74.00
2022-12-18T09:47:25.141Z,74.00
2022-12-18T09:52:24.102Z,74.00
2022-12-18T09:57:23.678Z,72.90
2022-12-18T10:02:23.407Z,73.10
2022-12-18T10:07:22.317Z,73.00
2022-12-18T10:12:21.118Z,72.00
2022-12-18T10:17:20.118Z,72.40
2022-12-18T10:22:19.083Z,72.20
2022-12-18T10:27:18.120Z,71.80
2022-12-18T10:32:17.257Z,70.20
2022-12-18T10:37:16.166Z,70.80
2022-12-18T10:42:15.116Z,69.80
2022-12-18T10:47:14.171Z,69.30
2022-12-18T10:52:13.210Z,69.50
2022-12-18T10:57:12.015Z,69.60
2022-12-18T11:02:11.263Z,69.00
2022-12-18T11:07:11.205Z,67.90
2022-12-18T11:12:10.265Z,67.80
2022-12-18T11:17:25.236Z,67.90
2022-12-18T11:22:10.183Z,67.30
2022-12-18T11:27:09.064Z,67.00
2022-12-18T11:32:08.075Z,65.90
2022-12-18T11:37:07.162Z,65.70
2022-12-18T11:42:12.187Z,66.90
2022-12-18T11:47:11.426Z,64.80
2022-12-18T11:52:10.163Z,64.90
2022-12-18T11:57:09.176Z,65.10
2022-12-18T12:02:08.102Z,65.10
2022-12-18T12:07:07.083Z,64.90
2022-12-18T12:12:06.116Z,64.70
2022-12-18T12:17:05.313Z,65.20
2022-12-18T12:22:04.224Z,65.50
2022-12-18T12:27:03.227Z,65.60
2022-12-18T12:32:02.291Z,65.40
2022-12-18T12:37:01.259Z,64.80
2022-12-18T12:42:18.426Z,65.00
2022-12-18T12:47:17.301Z,65.10
2022-12-18T12:52:17.155Z,65.40
2022-12-18T12:57:17.582Z,65.40
2022-12-18T13:02:17.120Z,66.00
2022-12-18T13:07:17.162Z,65.70
2022-12-18T13:13:46.937Z,65.60
2022-12-18T13:17:35.101Z,65.80
2022-12-18T13:22:34.338Z,65.80
2022-12-18T13:27:33.175Z,65.40
2022-12-18T13:32:32.381Z,65.30
2022-12-18T13:37:31.207Z,65.70
2022-12-18T13:42:48.285Z,64.60
2022-12-18T13:47:47.254Z,64.90
2022-12-18T13:52:46.236Z,65.10
2022-12-18T13:57:45.238Z,65.20
2022-12-18T14:02:45.379Z,65.60
2022-12-18T14:07:47.505Z,65.60
2022-12-18T14:12:57.360Z,65.50
2022-12-18T14:17:56.293Z,65.70
2022-12-18T14:22:55.161Z,65.80
2022-12-18T14:27:54.286Z,65.70
2022-12-18T14:32:53.122Z,65.60
2022-12-18T14:37:52.293Z,65.70
2022-12-18T14:42:51.203Z,65.70
2022-12-18T14:47:50.215Z,66.10
2022-12-18T14:52:49.196Z,66.20
2022-12-18T14:57:48.092Z,66.20
2022-12-18T15:02:47.475Z,66.40
2022-12-18T15:07:46.121Z,66.30
2022-12-18T15:12:45.346Z,66.50
2022-12-18T15:17:44.430Z,66.60
2022-12-18T15:22:43.373Z,66.60
2022-12-18T15:27:42.181Z,66.70
2022-12-18T15:32:42.474Z,66.80
2022-12-18T15:37:41.217Z,66.80
2022-12-18T15:42:59.479Z,67.10
2022-12-18T15:47:59.329Z,67.20
2022-12-18T15:52:58.433Z,67.20
2022-12-18T15:57:57.345Z,67.40
2022-12-18T16:02:56.295Z,67.70
2022-12-18T16:07:55.158Z,67.80
2022-12-18T16:12:54.438Z,68.00
2022-12-18T16:17:53.395Z,68.30
2022-12-18T16:22:53.573Z,68.70
2022-12-18T16:27:52.219Z,69.10
2022-12-18T16:32:51.150Z,69.30
2022-12-18T16:37:50.246Z,69.60
2022-12-18T16:42:49.256Z,69.80
2022-12-18T16:47:48.175Z,70.10
2022-12-18T16:52:47.153Z,70.70
2022-12-18T16:57:46.389Z,71.00
2022-12-18T17:02:46.003Z,71.40
2022-12-18T17:07:46.349Z,71.50
2022-12-18T17:12:45.250Z,71.70
2022-12-18T17:17:47.437Z,72.00
2022-12-18T17:22:46.313Z,72.10
2022-12-18T17:27:45.526Z,72.20
2022-12-18T17:32:44.167Z,72.50
2022-12-18T17:37:43.281Z,72.90
2022-12-18T17:42:42.245Z,73.00
2022-12-18T17:47:41.815Z,73.20
2022-12-18T17:52:40.338Z,73.40
2022-12-18T17:57:39.347Z,73.50
2022-12-18T18:02:38.921Z,73.60
2022-12-18T18:07:38.697Z,73.80
2022-12-18T18:12:55.677Z,74.00
2022-12-18T18:17:54.465Z,74.10
2022-12-18T18:22:53.279Z,74.50
2022-12-18T18:27:52.446Z,74.50
2022-12-18T18:32:51.633Z,74.60
2022-12-18T18:37:52.224Z,74.60
2022-12-18T18:42:52.289Z,75.00
2022-12-18T18:47:51.307Z,75.10
2022-12-18T18:52:50.488Z,75.20
2022-12-18T18:57:49.480Z,75.30
2022-12-18T19:02:48.505Z,75.40
2022-12-18T19:07:47.718Z,75.20
2022-12-18T19:13:04.431Z,75.20
2022-12-18T19:18:03.521Z,75.10
2022-12-18T19:23:02.488Z,75.10
2022-12-18T19:28:01.320Z,75.00
2022-12-18T19:33:09.764Z,75.10
2022-12-18T19:38:01.355Z,75.10
2022-12-18T19:43:01.864Z,75.00
2022-12-18T19:48:04.213Z,74.90
2022-12-18T19:53:01.399Z,74.90
2022-12-18T19:58:00.279Z,74.80
2022-12-18T20:03:06.459Z,74.80
2022-12-18T20:08:00.303Z,74.90
2022-12-18T20:13:00.074Z,74.90
2022-12-18T20:18:00.241Z,74.80
2022-12-18T20:22:59.437Z,74.90
2022-12-18T20:28:01.295Z,74.90
2022-12-18T20:33:00.526Z,75.20
2022-12-18T20:37:59.222Z,75.40
2022-12-18T20:43:00.290Z,75.50
2022-12-18T20:48:00.625Z,75.70
2022-12-18T20:52:59.368Z,75.70
2022-12-18T20:57:58.467Z,75.60
2022-12-18T21:02:57.507Z,75.80
2022-12-18T21:07:56.402Z,75.70
2022-12-18T21:13:00.118Z,75.50
2022-12-18T21:17:56.367Z,75.60
2022-12-18T21:22:55.568Z,75.60
2022-12-18T21:27:56.594Z,75.50
2022-12-18T21:32:55.412Z,75.60
2022-12-18T21:37:54.439Z,75.90
2022-12-18T21:43:16.612Z,76.10
2022-12-18T21:48:15.384Z,76.60
2022-12-18T21:53:14.391Z,77.50
2022-12-18T21:58:13.619Z,78.00
2022-12-18T22:03:18.703Z,78.30
2022-12-18T22:08:13.627Z,78.70
2022-12-18T22:13:13.511Z,79.20
2022-12-18T22:18:12.538Z,80.10
2022-12-18T22:23:12.638Z,80.70
2022-12-18T22:28:29.630Z,81.10
2022-12-18T22:33:28.494Z,81.20
2022-12-18T22:38:27.417Z,82.20
2022-12-18T22:43:26.514Z,82.60
2022-12-18T22:48:25.502Z,82.80
2022-12-18T22:53:24.666Z,83.20
2022-12-18T22:58:24.149Z,83.70
2022-12-18T23:03:23.614Z,84.10
2022-12-18T23:08:22.387Z,84.50
2022-12-18T23:13:21.397Z,84.80
2022-12-18T23:18:20.408Z,85.00
2022-12-18T23:23:19.403Z,85.70
2022-12-18T23:28:18.328Z,85.90
2022-12-18T23:33:17.407Z,86.50
2022-12-18T23:38:16.454Z,86.70
2022-12-18T23:43:15.430Z,87.40
2022-12-18T23:48:14.405Z,87.80
2022-12-18T23:53:13.450Z,87.90
2022-12-18T23:58:12.603Z,88.30
